createdAt,value
2022-11-10T00:00:47.107Z,48.95
2022-11-10T00:03:33.646Z,45.90
2022-11-10T00:06:19.581Z,46.20
2022-11-10T00:09:06.267Z,47.08
2022-11-10T00:11:52.346Z,49.88
2022-11-10T00:14:56.773Z,48.50
2022-11-10T00:17:43.432Z,49.35
2022-11-10T00:20:30.060Z,50.03
2022-11-10T00:23:15.783Z,48.72
2022-11-10T00:26:01.501Z,52.30
2022-11-10T00:28:47.510Z,49.33
2022-11-10T00:31:33.304Z,47.72
2022-11-10T00:34:19.094Z,49.65
2022-11-10T00:37:04.857Z,49.10
2022-11-10T00:39:50.448Z,47.45
2022-11-10T00:42:36.586Z,45.75
2022-11-10T00:45:22.435Z,44.13
2022-11-10T00:48:08.216Z,43.63
2022-11-10T00:50:54.033Z,44.00
2022-11-10T00:53:39.689Z,40.40
2022-11-10T00:56:26.288Z,40.53
2022-11-10T00:59:12.274Z,48.17
2022-11-10T01:01:58.027Z,44.33
2022-11-10T01:04:43.951Z,46.67
2022-11-10T01:07:29.875Z,50.55
2022-11-10T01:10:16.175Z,49.60
2022-11-10T01:13:02.373Z,51.20
2022-11-10T01:15:48.095Z,51.97
2022-11-10T01:18:35.291Z,54.25
2022-11-10T01:21:22.330Z,56.70
2022-11-10T01:24:08.084Z,46.67
2022-11-10T01:26:54.068Z,49.80
2022-11-10T01:29:39.763Z,48.38
2022-11-10T01:32:25.794Z,47.45
2022-11-10T01:35:11.920Z,49.28
2022-11-10T01:37:58.678Z,48.47
2022-11-10T01:40:44.755Z,47.23
2022-11-10T01:43:31.737Z,48.47
2022-11-10T01:46:17.476Z,48.57
2022-11-10T01:49:04.526Z,50.33
2022-11-10T01:52:07.916Z,51.33
2022-11-10T01:54:53.922Z,48.70
2022-11-10T01:57:41.837Z,50.00
2022-11-10T02:00:27.903Z,53.60
2022-11-10T02:03:19.670Z,52.63
2022-11-10T02:06:07.767Z,50.88
2022-11-10T02:08:55.743Z,52.73
2022-11-10T02:11:44.059Z,56.25
2022-11-10T02:14:29.774Z,55.10
2022-11-10T02:17:16.095Z,57.67
2022-11-10T02:20:05.983Z,59.10
2022-11-10T02:22:51.870Z,59.00
2022-11-10T02:25:37.781Z,66.38
2022-11-10T02:28:25.427Z,66.60
2022-11-10T02:31:11.320Z,71.20
2022-11-10T02:33:57.184Z,68.72
2022-11-10T02:36:42.994Z,68.77
2022-11-10T02:39:28.839Z,73.53
2022-11-10T02:42:14.916Z,70.93
2022-11-10T02:45:00.864Z,74.78
2022-11-10T02:47:46.495Z,75.53
2022-11-10T02:50:32.265Z,74.65
2022-11-10T02:53:18.033Z,74.03
2022-11-10T02:56:04.017Z,75.45
2022-11-10T02:58:49.823Z,77.43
2022-11-10T03:01:35.380Z,77.93
2022-11-10T03:04:21.244Z,79.33
2022-11-10T03:07:07.260Z,76.13
2022-11-10T03:09:53.116Z,60.70
2022-11-10T03:12:38.813Z,62.45
2022-11-10T03:15:25.259Z,62.17
2022-11-10T03:18:11.234Z,56.28
2022-11-10T03:20:57.377Z,54.78
2022-11-10T03:23:43.045Z,51.20
2022-11-10T03:26:28.908Z,51.85
2022-11-10T03:29:14.912Z,53.00
2022-11-10T03:32:00.851Z,54.80
2022-11-10T03:34:46.660Z,54.65
2022-11-10T03:37:32.287Z,51.88
2022-11-10T03:40:18.144Z,52.60
2022-11-10T03:43:04.253Z,55.03
2022-11-10T03:45:50.170Z,55.30
2022-11-10T03:48:35.976Z,53.92
2022-11-10T03:51:22.550Z,58.28
2022-11-10T03:54:08.296Z,58.38
2022-11-10T03:56:54.677Z,52.17
2022-11-10T03:59:40.668Z,54.55
2022-11-10T04:02:26.570Z,51.00
2022-11-10T04:05:31.520Z,54.75
2022-11-10T04:08:36.474Z,49.50
2022-11-10T04:11:41.062Z,51.30
2022-11-10T04:14:45.740Z,50.08
2022-11-10T04:17:31.880Z,49.55
2022-11-10T04:20:17.916Z,49.45
2022-11-10T04:23:22.757Z,51.83
2022-11-10T04:26:29.755Z,54.72
2022-11-10T04:29:17.865Z,54.75
2022-11-10T04:32:03.752Z,52.72
2022-11-10T04:34:49.499Z,52.75
2022-11-10T04:37:35.249Z,52.28
2022-11-10T04:40:21.303Z,52.85
2022-11-10T04:43:07.144Z,55.20
2022-11-10T04:45:53.449Z,59.72
2022-11-10T04:48:39.376Z,59.70
2022-11-10T04:51:32.302Z,59.03
2022-11-10T04:54:18.168Z,60.47
2022-11-10T04:57:03.979Z,57.78
2022-11-10T04:59:49.751Z,56.67
2022-11-10T05:02:39.386Z,61.05
2022-11-10T05:05:25.739Z,55.70
2022-11-10T05:08:11.978Z,50.28
2022-11-10T05:10:57.596Z,50.33
2022-11-10T05:13:45.316Z,51.42
2022-11-10T05:16:31.249Z,49.75
2022-11-10T05:19:17.278Z,50.53
2022-11-10T05:22:03.292Z,50.30
2022-11-10T05:24:49.368Z,49.10
2022-11-10T05:27:35.273Z,50.43
2022-11-10T05:30:20.975Z,50.42
2022-11-10T05:33:07.153Z,52.50
2022-11-10T05:35:53.133Z,49.65
2022-11-10T05:38:43.491Z,49.17
2022-11-10T05:41:29.822Z,49.88
2022-11-10T05:44:15.824Z,49.13
2022-11-10T05:47:01.957Z,49.95
2022-11-10T05:49:47.454Z,53.72
2022-11-10T05:52:33.747Z,55.05
2022-11-10T05:55:24.342Z,55.43
2022-11-10T05:58:09.999Z,57.53
2022-11-10T06:00:56.358Z,56.13
2022-11-10T06:03:42.218Z,57.78
2022-11-10T06:06:28.112Z,57.95
2022-11-10T06:09:13.923Z,50.85
2022-11-10T06:12:00.096Z,53.10
2022-11-10T06:14:45.917Z,51.53
2022-11-10T06:17:31.877Z,54.17
2022-11-10T06:20:18.477Z,51.83
2022-11-10T06:23:12.199Z,52.20
2022-11-10T06:25:58.132Z,53.25
2022-11-10T06:28:43.960Z,53.45
2022-11-10T06:31:29.885Z,55.00
2022-11-10T06:34:15.764Z,55.05
2022-11-10T06:37:01.740Z,55.78
2022-11-10T06:39:47.789Z,59.05
2022-11-10T06:42:34.596Z,62.10
2022-11-10T06:45:20.572Z,61.13
2022-11-10T06:48:09.670Z,60.58
2022-11-10T06:50:55.390Z,63.10
2022-11-10T06:53:42.284Z,62.83
2022-11-10T06:56:28.219Z,65.28
2022-11-10T06:59:14.038Z,72.50
2022-11-10T07:01:59.802Z,73.67
2022-11-10T07:04:45.847Z,70.20
2022-11-10T07:07:31.660Z,51.83
2022-11-10T07:10:17.492Z,47.17
2022-11-10T07:13:04.764Z,48.08
2022-11-10T07:15:50.633Z,45.35
2022-11-10T07:18:36.795Z,44.60
2022-11-10T09:42:34.141Z,27.35
2022-11-10T09:45:20.035Z,29.92
2022-11-10T10:03:02.468Z,29.52
2022-11-10T10:05:48.609Z,29.85
2022-11-10T10:08:54.513Z,30.15
2022-11-10T10:12:02.400Z,33.25
2022-11-10T10:15:09.564Z,30.33
2022-11-10T10:18:07.761Z,31.35
2022-11-10T10:20:59.385Z,30.70
2022-11-10T10:26:59.917Z,28.73
2022-11-10T10:29:49.215Z,28.40
2022-11-10T10:32:35.407Z,28.23
2022-11-10T10:35:21.482Z,30.30
2022-11-10T10:38:18.754Z,28.65
2022-11-10T10:41:18.298Z,27.88
2022-11-10T10:44:13.176Z,28.65
2022-11-10T10:47:01.197Z,28.80
2022-11-10T10:49:47.089Z,27.23
2022-11-10T10:52:33.122Z,28.88
2022-11-10T10:55:19.303Z,27.50
2022-11-10T10:58:27.264Z,27.53
2022-11-10T11:01:16.024Z,26.75
2022-11-10T11:04:25.112Z,28.33
2022-11-10T11:07:23.027Z,29.63
2022-11-10T11:10:21.124Z,29.55
2022-11-10T11:13:23.668Z,30.38
2022-11-10T11:16:12.334Z,29.08
2022-11-10T11:18:58.883Z,29.50
2022-11-10T11:22:05.044Z,30.27
2022-11-10T11:25:19.476Z,28.92
2022-11-10T11:28:10.734Z,30.85
2022-11-10T11:30:56.229Z,30.75
2022-11-10T11:33:51.078Z,31.52
2022-11-10T11:36:48.864Z,29.80
2022-11-10T11:39:48.492Z,28.88
2022-11-10T11:42:50.566Z,28.17
2022-11-10T11:46:00.854Z,28.05
2022-11-10T11:49:01.485Z,27.65
2022-11-10T11:51:47.339Z,28.55
2022-11-10T11:55:02.259Z,26.00
2022-11-10T11:58:05.502Z,26.60
2022-11-10T12:01:03.209Z,25.50
2022-11-10T12:04:09.956Z,26.30
2022-11-10T12:07:14.496Z,28.35
2022-11-10T12:10:29.470Z,28.98
2022-11-10T12:13:24.441Z,30.00
2022-11-10T12:16:23.114Z,44.38
2022-11-10T12:19:24.251Z,31.10
2022-11-10T12:22:22.662Z,32.85
2022-11-10T12:25:27.293Z,32.47
2022-11-10T12:28:23.995Z,35.47
2022-11-10T12:31:18.022Z,33.65
2022-11-10T12:34:14.617Z,34.25
2022-11-10T12:37:05.085Z,32.67
2022-11-10T12:39:57.555Z,32.78
2022-11-10T12:42:55.816Z,31.73
2022-11-10T12:45:49.056Z,35.50
2022-11-10T12:48:47.152Z,37.95
2022-11-10T12:51:45.952Z,37.63
2022-11-10T12:54:34.730Z,35.92
2022-11-10T12:57:25.379Z,34.70
2022-11-10T13:00:27.947Z,35.13
2022-11-10T13:03:33.384Z,33.97
2022-11-10T13:06:35.725Z,35.72
2022-11-10T13:09:28.008Z,36.75
2022-11-10T13:12:22.337Z,36.70
2022-11-10T13:15:38.975Z,36.92
2022-11-10T13:18:44.843Z,37.55
2022-11-10T13:21:52.764Z,35.55
2022-11-10T13:24:40.756Z,33.95
2022-11-10T13:27:33.047Z,35.30
2022-11-10T13:30:41.909Z,36.53
2022-11-10T13:33:35.354Z,36.30
2022-11-10T13:36:42.047Z,37.22
2022-11-10T13:39:33.353Z,33.90
2022-11-10T13:42:23.879Z,36.38
2022-11-10T13:45:34.076Z,36.58
2022-11-10T13:48:36.974Z,36.80
2022-11-10T13:51:32.360Z,37.90
2022-11-10T13:54:44.152Z,39.17
2022-11-10T13:57:35.078Z,37.78
2022-11-10T14:00:20.814Z,37.83
2022-11-10T14:03:07.992Z,37.33
2022-11-10T14:06:05.016Z,39.67
2022-11-10T14:09:16.337Z,38.28
2022-11-10T14:12:15.214Z,39.47
2022-11-10T14:15:06.957Z,38.97
2022-11-10T14:17:55.918Z,39.42
2022-11-10T14:20:43.873Z,39.22
2022-11-10T14:23:35.756Z,39.08
2022-11-10T14:26:50.992Z,37.28
2022-11-10T14:29:39.280Z,40.55
2022-11-10T14:32:26.504Z,41.70
2022-11-10T14:35:22.347Z,42.50
2022-11-10T14:38:20.910Z,43.10
2022-11-10T14:41:16.372Z,41.05
2022-11-10T14:44:05.429Z,40.88
2022-11-10T14:46:51.656Z,42.45
2022-11-10T14:49:37.626Z,49.20
2022-11-10T14:52:23.773Z,40.33
2022-11-10T14:55:15.908Z,41.25
2022-11-10T14:58:23.232Z,41.80
2022-11-10T15:01:51.280Z,41.05
2022-11-10T15:04:37.466Z,39.72
2022-11-10T15:07:23.268Z,41.20
2022-11-10T15:10:24.280Z,41.42
2022-11-10T15:13:12.796Z,41.30
2022-11-10T15:16:21.559Z,41.70
2022-11-10T15:19:28.378Z,40.20
2022-11-10T15:22:33.799Z,40.58
2022-11-10T15:25:22.647Z,39.60
2022-11-10T15:28:14.257Z,41.75
2022-11-10T15:31:03.614Z,40.72
2022-11-10T15:33:53.308Z,44.03
2022-11-10T15:36:41.952Z,42.65
2022-11-10T15:39:28.794Z,42.63
2022-11-10T15:42:18.447Z,41.03
2022-11-10T15:45:05.001Z,42.65
2022-11-10T15:47:51.305Z,43.17
2022-11-10T15:50:37.486Z,44.25
2022-11-10T15:53:30.572Z,45.42
2022-11-10T15:56:18.729Z,46.17
2022-11-10T15:59:04.698Z,46.55
2022-11-10T16:01:51.241Z,48.17
2022-11-10T16:04:37.245Z,47.40
2022-11-10T16:07:23.567Z,47.25
2022-11-10T16:10:09.367Z,50.13
2022-11-10T16:12:55.183Z,50.17
2022-11-10T16:15:42.046Z,51.03
2022-11-10T16:21:16.844Z,50.72
2022-11-10T16:24:03.684Z,51.17
2022-11-10T16:26:49.825Z,52.15
2022-11-10T16:29:37.048Z,50.85
2022-11-10T16:32:23.617Z,51.45
2022-11-10T16:35:15.769Z,53.58
2022-11-10T16:38:20.278Z,51.50
2022-11-10T16:41:12.631Z,51.53
2022-11-10T16:43:58.257Z,51.05
2022-11-10T16:46:48.042Z,51.35
2022-11-10T16:49:35.684Z,51.17
2022-11-10T16:52:22.572Z,52.15
2022-11-10T16:55:12.357Z,52.00
2022-11-10T16:57:59.370Z,52.83
2022-11-10T17:00:48.174Z,52.53
2022-11-10T17:03:43.047Z,54.45
2022-11-10T17:06:31.005Z,51.60
2022-11-10T17:09:23.256Z,52.63
2022-11-10T17:12:13.492Z,51.63
2022-11-10T17:14:59.529Z,50.88
2022-11-10T17:17:48.356Z,51.65
2022-11-10T17:20:37.883Z,50.80
2022-11-10T17:23:26.283Z,50.03
2022-11-10T17:26:16.082Z,51.35
2022-11-10T17:29:02.107Z,51.53
2022-11-10T17:31:52.860Z,50.97
2022-11-10T17:34:38.957Z,51.78
2022-11-10T17:37:24.633Z,53.47
2022-11-10T17:40:21.018Z,54.15
2022-11-10T17:43:13.717Z,51.05
2022-11-10T17:45:59.949Z,51.88
2022-11-10T17:48:47.882Z,51.75
2022-11-10T17:51:35.843Z,52.50
2022-11-10T17:54:22.366Z,50.50
2022-11-10T17:57:10.235Z,51.95
2022-11-10T17:59:56.997Z,50.78
2022-11-10T18:02:45.071Z,56.05
2022-11-10T18:05:31.447Z,54.20
2022-11-10T18:08:17.970Z,54.58
2022-11-10T18:11:04.520Z,53.78
2022-11-10T18:13:50.485Z,52.77
2022-11-10T18:16:36.132Z,54.50
2022-11-10T18:19:22.536Z,53.97
2022-11-10T18:22:08.456Z,53.78
2022-11-10T18:24:54.182Z,54.05
2022-11-10T18:27:39.928Z,50.95
2022-11-10T18:30:27.262Z,51.70
2022-11-10T18:33:14.920Z,51.58
2022-11-10T18:36:02.004Z,53.90
2022-11-10T18:41:49.028Z,50.60
2022-11-10T18:44:38.601Z,51.45
2022-11-10T18:47:24.456Z,49.63
2022-11-10T18:50:10.663Z,52.05
2022-11-10T18:52:56.949Z,51.45
2022-11-10T18:55:45.597Z,51.05
2022-11-10T18:58:31.493Z,48.78
2022-11-10T19:01:18.339Z,49.58
2022-11-10T19:04:04.503Z,49.30
2022-11-10T19:06:50.291Z,49.88
2022-11-10T19:09:36.573Z,48.33
2022-11-10T19:12:26.537Z,46.70
2022-11-10T19:15:12.847Z,43.05
2022-11-10T19:17:59.645Z,44.38
2022-11-10T19:23:31.848Z,41.28
2022-11-10T19:26:22.875Z,43.50
2022-11-10T19:29:08.799Z,44.10
2022-11-10T19:31:54.484Z,45.95
2022-11-10T19:34:40.559Z,44.60
2022-11-10T19:37:29.810Z,46.20
2022-11-10T19:40:20.044Z,47.05
2022-11-10T19:43:06.874Z,46.33
2022-11-10T19:45:52.759Z,47.97
2022-11-10T19:48:39.001Z,47.67
2022-11-10T19:51:28.542Z,50.25
2022-11-10T19:54:16.954Z,49.60
2022-11-10T19:57:03.470Z,48.55
2022-11-10T19:59:49.584Z,50.60
2022-11-10T20:02:35.561Z,51.30
2022-11-10T20:05:22.231Z,52.83
2022-11-10T20:08:13.463Z,48.05
2022-11-10T20:11:20.137Z,50.30
2022-11-10T20:14:06.971Z,48.85
2022-11-10T20:16:53.518Z,47.45
2022-11-10T20:19:41.440Z,48.33
2022-11-10T20:22:28.572Z,48.35
2022-11-10T20:25:15.673Z,46.88
2022-11-10T20:28:06.134Z,49.13
2022-11-10T20:30:56.983Z,45.28
2022-11-10T20:33:45.173Z,47.63
2022-11-10T20:36:34.128Z,43.20
2022-11-10T20:39:22.411Z,42.40
2022-11-10T20:42:11.863Z,41.33
2022-11-10T20:44:58.856Z,39.97
2022-11-10T20:47:47.780Z,38.80
2022-11-10T20:50:33.960Z,39.63
2022-11-10T20:53:19.919Z,37.50
2022-11-10T20:56:07.694Z,32.75
2022-11-10T20:58:53.882Z,32.83
2022-11-10T21:01:40.224Z,33.75
2022-11-10T21:04:26.526Z,31.73
2022-11-10T21:07:12.426Z,29.98
2022-11-10T21:09:58.729Z,34.80
2022-11-10T21:12:51.326Z,39.72
2022-11-10T21:15:39.510Z,38.50
2022-11-10T21:18:29.459Z,38.17
2022-11-10T21:21:22.962Z,40.15
